Temp: 9.3°C   Baro: 1005.6mb
  Wind: 4.0mph   Dir: SW (231°)
  Rain: 0.4mm (0.0mm/hr)
  Sun: 0W/m2  Humidity: 93%

Historic data

Bath Spa Weather Station Historical Data
Daily Summary for October 13, 2022 Units:  Both    English   Metric
Daily Weekly Monthly Yearly Custom
  High: Low: Average:
Temperature: 64.8 °F /  18.2 °C 49.3 °F /  9.6 °C 54.7 °F /  12.6 °C
Dew Point: 56.4 °F /  13.6 °C 47.8 °F /  8.8 °C 51.3 °F /  10.7 °C
Humidity: 96% 68.6% 89%
Wind Speed: 3.1mph /  5km/h - 0.5mph /  0.8km/h
Wind Gust: 6mph /  9.7km/h - -
Wind- - SW
Pressure: 30.08 in /  1018.5 hPa 29.97 in /  1014.8 hPa -
Precipitation: 0.19 in /  4.83 mm    
Historical Graphs
 
 
Tabular Data for October 13, 2022
Time Temperature Dew Point Pressure Wind Wind Speed Wind Gust Humidity Rainfall Rate (Hourly) solar
00:09 54.9 °F /  12.7 °C 52.9 °F /  11.6 °C 30.08in /  1018.5hPa West 1.6mph /  2.6km/h 3mph /  4.8km/h 93% 0.00in /  0mm 0 W/m2
00:14 54.9 °F /  12.7 °C 52.9 °F /  11.6 °C 30.08in /  1018.5hPa West 2.4mph /  3.9km/h 4mph /  6.4km/h 93% 0.01in /  0.25mm 0 W/m2
00:19 54.9 °F /  12.7 °C 52.9 °F /  11.6 °C 30.08in /  1018.5hPa West 0.9mph /  1.4km/h 4mph /  6.4km/h 93% 0.01in /  0.25mm 0 W/m2
00:24 54.9 °F /  12.7 °C 52.9 °F /  11.6 °C 30.08in /  1018.5hPa West 1.3mph /  2.1km/h 3mph /  4.8km/h 93% 0.02in /  0.51mm 0 W/m2
00:29 54.9 °F /  12.7 °C 52.9 °F /  11.6 °C 30.07in /  1018.2hPa West 0.6mph /  1km/h 3mph /  4.8km/h 93% 0.02in /  0.51mm 0 W/m2
00:34 54.9 °F /  12.7 °C 52.9 °F /  11.6 °C 30.07in /  1018.2hPa Calm   1mph /  1.6km/h 93% 0.04in /  1.02mm 0 W/m2
00:39 54.9 °F /  12.7 °C 52.9 °F /  11.6 °C 30.08in /  1018.5hPa West 0.6mph /  1km/h 2mph /  3.2km/h 93% 0.05in /  1.27mm 0 W/m2
00:44 54.9 °F /  12.7 °C 52.9 °F /  11.6 °C 30.08in /  1018.5hPa West 0.5mph /  0.8km/h 2mph /  3.2km/h 93% 0.05in /  1.27mm 0 W/m2
00:49 54.9 °F /  12.7 °C 52.9 °F /  11.6 °C 30.07in /  1018.2hPa West 1.2mph /  1.9km/h 3mph /  4.8km/h 93% 0.06in /  1.52mm 0 W/m2
00:54 54.9 °F /  12.7 °C 52.9 °F /  11.6 °C 30.07in /  1018.2hPa West 1.2mph /  1.9km/h 3mph /  4.8km/h 93% 0.06in /  1.52mm 0 W/m2
00:59 54.9 °F /  12.7 °C 52.9 °F /  11.6 °C 30.07in /  1018.2hPa West 1.6mph /  2.6km/h 2mph /  3.2km/h 93% 0.07in /  1.78mm 0 W/m2
01:04 54.9 °F /  12.7 °C 52.9 °F /  11.6 °C 30.07in /  1018.2hPa West 0.5mph /  0.8km/h 2mph /  3.2km/h 93% 0.08in /  2.03mm 0 W/m2
01:09 54.9 °F /  12.7 °C 52.9 °F /  11.6 °C 30.07in /  1018.2hPa West 1.3mph /  2.1km/h 2mph /  3.2km/h 93% 0.09in /  2.29mm 0 W/m2
01:14 54.9 °F /  12.7 °C 53.1 °F /  11.7 °C 30.07in /  1018.2hPa West 0.7mph /  1.1km/h 2mph /  3.2km/h 93.6% 0.09in /  2.29mm 0 W/m2
01:19 54.9 °F /  12.7 °C 53.2 °F /  11.8 °C 30.07in /  1018.2hPa West 1.6mph /  2.6km/h 2mph /  3.2km/h 94% 0.08in /  2.03mm 0 W/m2
01:24 54.9 °F /  12.7 °C 53.2 °F /  11.8 °C 30.07in /  1018.2hPa West 2mph /  3.2km/h 3mph /  4.8km/h 94% 0.09in /  2.29mm 0 W/m2
01:29 54.9 °F /  12.7 °C 53.2 °F /  11.8 °C 30.07in /  1018.2hPa West 2mph /  3.2km/h 3mph /  4.8km/h 94% 0.09in /  2.29mm 0 W/m2
01:34 54.9 °F /  12.7 °C 53.2 °F /  11.8 °C 30.07in /  1018.2hPa West 2mph /  3.2km/h 3mph /  4.8km/h 94% 0.08in /  2.03mm 0 W/m2
01:39 54.9 °F /  12.7 °C 53.2 °F /  11.8 °C 30.07in /  1018.2hPa West 1.7mph /  2.7km/h 3mph /  4.8km/h 94% 0.08in /  2.03mm 0 W/m2
01:44 54.9 °F /  12.7 °C 53.2 °F /  11.8 °C 30.07in /  1018.2hPa West 1.1mph /  1.8km/h 2mph /  3.2km/h 94% 0.08in /  2.03mm 0 W/m2
01:49 54.9 °F /  12.7 °C 53.2 °F /  11.8 °C 30.07in /  1018.2hPa West 1.6mph /  2.6km/h 2mph /  3.2km/h 94% 0.08in /  2.03mm 0 W/m2
01:54 54.9 °F /  12.7 °C 53.2 °F /  11.8 °C 30.06in /  1017.8hPa West 0.2mph /  0.3km/h 2mph /  3.2km/h 94% 0.08in /  2.03mm 0 W/m2
01:59 54.7 °F /  12.6 °C 53.1 °F /  11.7 °C 30.06in /  1017.8hPa West 2.4mph /  3.9km/h 3mph /  4.8km/h 94% 0.08in /  2.03mm 0 W/m2
02:04 54.7 °F /  12.6 °C 53.1 °F /  11.7 °C 30.06in /  1017.8hPa West 0.5mph /  0.8km/h 3mph /  4.8km/h 94% 0.08in /  2.03mm 0 W/m2
02:09 54.7 °F /  12.6 °C 53.1 °F /  11.7 °C 30.06in /  1017.8hPa West 0.5mph /  0.8km/h 2mph /  3.2km/h 94% 0.08in /  2.03mm 0 W/m2
02:14 54.7 °F /  12.6 °C 53.1 °F /  11.7 °C 30.06in /  1017.8hPa Calm   2mph /  3.2km/h 94% 0.08in /  2.03mm 0 W/m2
02:19 54.7 °F /  12.6 °C 53.1 °F /  11.7 °C 30.06in /  1017.8hPa Calm     94% 0.09in /  2.29mm 0 W/m2
02:24 54.7 °F /  12.6 °C 53.1 °F /  11.7 °C 30.06in /  1017.8hPa Calm     94% 0.09in /  2.29mm 0 W/m2
02:29 54.7 °F /  12.6 °C 53.1 °F /  11.7 °C 30.06in /  1017.8hPa West 1mph /  1.6km/h 2mph /  3.2km/h 94% 0.08in /  2.03mm 0 W/m2
02:34 54.7 °F /  12.6 °C 53.1 °F /  11.7 °C 30.05in /  1017.5hPa West 0.7mph /  1.1km/h 2mph /  3.2km/h 94% 0.08in /  2.03mm 0 W/m2
02:39 54.7 °F /  12.6 °C 53.1 °F /  11.7 °C 30.05in /  1017.5hPa West 0.2mph /  0.3km/h 2mph /  3.2km/h 94% 0.07in /  1.78mm 0 W/m2
02:44 54.5 °F /  12.5 °C 52.9 °F /  11.6 °C 30.05in /  1017.5hPa Calm     94% 0.06in /  1.52mm 0 W/m2
02:49 54.3 °F /  12.4 °C 52.7 °F /  11.5 °C 30.05in /  1017.5hPa Calm     94% 0.06in /  1.52mm 0 W/m2
02:54 54.3 °F /  12.4 °C 52.7 °F /  11.5 °C 30.04in /  1017.2hPa Calm     94% 0.05in /  1.27mm 0 W/m2
02:59 54.3 °F /  12.4 °C 52.7 °F /  11.5 °C 30.04in /  1017.2hPa Calm     94% 0.04in /  1.02mm 0 W/m2
03:04 54.1 °F /  12.3 °C 52.5 °F /  11.4 °C 30.04in /  1017.2hPa West 0.8mph /  1.3km/h 2mph /  3.2km/h 94% 0.03in /  0.76mm 0 W/m2
03:09 54 °F /  12.2 °C 52.4 °F /  11.3 °C 30.04in /  1017.2hPa West 1.1mph /  1.8km/h 2mph /  3.2km/h 94% 0.03in /  0.76mm 0 W/m2
03:14 54 °F /  12.2 °C 52.3 °F /  11.3 °C 30.04in /  1017.2hPa Calm   1mph /  1.6km/h 94% 0.02in /  0.51mm 0 W/m2
03:19 54 °F /  12.2 °C 52.3 °F /  11.3 °C 30.04in /  1017.2hPa West 0.5mph /  0.8km/h 2mph /  3.2km/h 94% 0.02in /  0.51mm 0 W/m2
03:24 54 °F /  12.2 °C 52.3 °F /  11.3 °C 30.04in /  1017.2hPa West 1.3mph /  2.1km/h 2mph /  3.2km/h 94% 0.01in /  0.25mm 0 W/m2
03:29 53.8 °F /  12.1 °C 52.2 °F /  11.2 °C 30.03in /  1016.8hPa West 0.5mph /  0.8km/h 3mph /  4.8km/h 94% 0.00in /  0mm 0 W/m2
03:34 53.7 °F /  12.1 °C 52.2 °F /  11.2 °C 30.03in /  1016.8hPa West 1mph /  1.6km/h 2mph /  3.2km/h 94.6% 0.00in /  0mm 0 W/m2
03:39 53.6 °F /  12 °C 52.2 °F /  11.2 °C 30.03in /  1016.8hPa West 1.4mph /  2.3km/h 2mph /  3.2km/h 95% 0.00in /  0mm 0 W/m2
03:44 53.4 °F /  11.9 °C 52 °F /  11.1 °C 30.03in /  1016.8hPa Calm   1mph /  1.6km/h 94.8% 0.00in /  0mm 0 W/m2
03:49 53.2 °F /  11.8 °C 51.6 °F /  10.9 °C 30.03in /  1016.8hPa Calm     94% 0.00in /  0mm 0 W/m2
03:54 53.1 °F /  11.7 °C 51.6 °F /  10.9 °C 30.03in /  1016.8hPa Calm     94.6% 0.00in /  0mm 0 W/m2
03:59 53.1 °F /  11.7 °C 51.6 °F /  10.9 °C 30.03in /  1016.8hPa Calm     95% 0.00in /  0mm 0 W/m2
04:04 53 °F /  11.7 °C 51.5 °F /  10.8 °C 30.03in /  1016.8hPa Calm     95% 0.00in /  0mm 0 W/m2
04:09 52.7 °F /  11.5 °C 51.1 °F /  10.6 °C 30.03in /  1016.8hPa Calm     94.4% 0.00in /  0mm 0 W/m2
04:14 52.3 °F /  11.3 °C 50.9 °F /  10.5 °C 30.03in /  1016.8hPa Calm     94.6% 0.00in /  0mm 0 W/m2
04:19 52.2 °F /  11.2 °C 50.6 °F /  10.3 °C 30.03in /  1016.8hPa Calm     94.8% 0.00in /  0mm 0 W/m2
04:24 51.8 °F /  11 °C 50.3 °F /  10.2 °C 30.03in /  1016.8hPa Calm     94.2% 0.00in /  0mm 0 W/m2
04:29 51.4 °F /  10.8 °C 49.8 °F /  9.9 °C 30.02in /  1016.5hPa Calm     94.4% 0.00in /  0mm 0 W/m2
04:34 51.1 °F /  10.6 °C 49.5 °F /  9.7 °C 30.02in /  1016.5hPa Calm     94.2% 0.00in /  0mm 0 W/m2
04:39 51 °F /  10.6 °C 49.5 °F /  9.7 °C 30.02in /  1016.5hPa Calm     95% 0.00in /  0mm 0 W/m2
04:44 50.9 °F /  10.5 °C 49.5 °F /  9.7 °C 30.02in /  1016.5hPa Calm     95% 0.00in /  0mm 0 W/m2
04:49 50.9 °F /  10.5 °C 49.5 °F /  9.7 °C 30.02in /  1016.5hPa Calm     95% 0.00in /  0mm 0 W/m2
04:54 50.8 °F /  10.4 °C 49.4 °F /  9.7 °C 30.02in /  1016.5hPa Calm     95% 0.00in /  0mm 0 W/m2
04:59 50.7 °F /  10.4 °C 49.3 °F /  9.6 °C 30.02in /  1016.5hPa Calm     95% 0.00in /  0mm 0 W/m2
05:04 50.7 °F /  10.4 °C 49.3 °F /  9.6 °C 30.02in /  1016.5hPa Calm     95% 0.00in /  0mm 0 W/m2
05:09 50.6 °F /  10.3 °C 49.2 °F /  9.6 °C 30.02in /  1016.5hPa Calm     95% 0.00in /  0mm 0 W/m2
05:14 50.5 °F /  10.3 °C 49.1 °F /  9.5 °C 30.02in /  1016.5hPa Calm     95% 0.00in /  0mm 0 W/m2
05:19 50.5 °F /  10.3 °C 49.1 °F /  9.5 °C 30.02in /  1016.5hPa Calm     95% 0.00in /  0mm 0 W/m2
05:24 50.4 °F /  10.2 °C 48.9 °F /  9.4 °C 30.02in /  1016.5hPa Calm     95% 0.00in /  0mm 0 W/m2
05:29 50.4 °F /  10.2 °C 48.9 °F /  9.4 °C 30.02in /  1016.5hPa Calm     95% 0.00in /  0mm 0 W/m2
05:34 50.4 °F /  10.2 °C 48.9 °F /  9.4 °C 30.02in /  1016.5hPa Calm     95% 0.00in /  0mm 0 W/m2
05:39 50.4 °F /  10.2 °C 49 °F /  9.4 °C 30.02in /  1016.5hPa Calm     95% 0.00in /  0mm 0 W/m2
05:44 50.5 °F /  10.3 °C 49.1 °F /  9.5 °C 30.02in /  1016.5hPa Calm     95% 0.00in /  0mm 0 W/m2
05:49 50.5 °F /  10.3 °C 49.1 °F /  9.5 °C 30.02in /  1016.5hPa Calm     95% 0.00in /  0mm 0 W/m2
05:54 50.5 °F /  10.3 °C 49.1 °F /  9.5 °C 30.02in /  1016.5hPa Calm     95% 0.00in /  0mm 0 W/m2
05:59 50.4 °F /  10.2 °C 49 °F /  9.4 °C 30.02in /  1016.5hPa Calm     95% 0.00in /  0mm 0 W/m2
06:04 50.4 °F /  10.2 °C 48.9 °F /  9.4 °C 30.02in /  1016.5hPa Calm     95% 0.00in /  0mm 0 W/m2
06:09 50.2 °F /  10.1 °C 48.7 °F /  9.3 °C 30.02in /  1016.5hPa Calm     95% 0.00in /  0mm 0 W/m2
06:14 50.2 °F /  10.1 °C 48.7 °F /  9.3 °C 30.02in /  1016.5hPa Calm     95% 0.00in /  0mm 0 W/m2
06:19 50.2 °F /  10.1 °C 48.7 °F /  9.3 °C 30.02in /  1016.5hPa Calm     95% 0.00in /  0mm 0 W/m2
06:24 50.2 °F /  10.1 °C 48.7 °F /  9.3 °C 30.02in /  1016.5hPa Calm     95% 0.00in /  0mm 0 W/m2
06:29 50.2 °F /  10.1 °C 48.7 °F /  9.3 °C 30.02in /  1016.5hPa Calm     95% 0.00in /  0mm 0 W/m2
06:34 49.8 °F /  9.9 °C 48.4 °F /  9.1 °C 30.02in /  1016.5hPa Calm     95% 0.00in /  0mm 0 W/m2
06:39 49.8 °F /  9.9 °C 48.4 °F /  9.1 °C 30.02in /  1016.5hPa Calm     95% 0.00in /  0mm 0 W/m2
06:44 49.6 °F /  9.8 °C 48.2 °F /  9 °C 30.02in /  1016.5hPa Calm     95% 0.00in /  0mm 0 W/m2
06:49 49.5 °F /  9.7 °C 48 °F /  8.9 °C 30.02in /  1016.5hPa Calm     95% 0.01in /  0.25mm 0 W/m2
06:54 49.3 °F /  9.6 °C 47.8 °F /  8.8 °C 30.02in /  1016.5hPa Calm     95% 0.01in /  0.25mm 0 W/m2
06:59 49.3 °F /  9.6 °C 47.8 °F /  8.8 °C 30.02in /  1016.5hPa Calm     95% 0.01in /  0.25mm 0 W/m2
07:04 49.3 °F /  9.6 °C 47.8 °F /  8.8 °C 30.02in /  1016.5hPa Calm     95% 0.01in /  0.25mm 0 W/m2
07:09 50.1 °F /  10.1 °C 48.7 °F /  9.3 °C 30.02in /  1016.5hPa Calm     95% 0.01in /  0.25mm 0 W/m2
07:14 51.4 °F /  10.8 °C 50.2 °F /  10.1 °C 30.01in /  1016.1hPa Calm     95.6% 0.01in /  0.25mm 0 W/m2
07:19 50.9 °F /  10.5 °C 49.7 °F /  9.8 °C 30.01in /  1016.1hPa Calm     95.8% 0.01in /  0.25mm 0 W/m2
07:24 50.1 °F /  10.1 °C 48.7 °F /  9.3 °C 30.01in /  1016.1hPa Calm     95% 0.01in /  0.25mm 0 W/m2
07:29 50.4 °F /  10.2 °C 48.9 °F /  9.4 °C 30.01in /  1016.1hPa Calm     95.2% 0.01in /  0.25mm 0 W/m2
07:34 50.4 °F /  10.2 °C 48.9 °F /  9.4 °C 30.01in /  1016.1hPa Calm     95.2% 0.01in /  0.25mm 0 W/m2
07:39 50.5 °F /  10.3 °C 49.4 °F /  9.7 °C 30.01in /  1016.1hPa Calm     96% 0.01in /  0.25mm 5 W/m2
07:44 50.6 °F /  10.3 °C 49.6 °F /  9.8 °C 30.01in /  1016.1hPa Calm     96% 0.01in /  0.25mm 11 W/m2
07:49 50.7 °F /  10.4 °C 49.4 °F /  9.7 °C 30.01in /  1016.1hPa Calm     95.4% 0.01in /  0.25mm 14 W/m2
07:54 50.3 °F /  10.2 °C 48.9 °F /  9.4 °C 30.01in /  1016.1hPa Calm     95.2% 0.00in /  0mm 14 W/m2
07:59 50 °F /  10 °C 48.7 °F /  9.3 °C 30.01in /  1016.1hPa Calm     95.4% 0.00in /  0mm 25 W/m2
08:04 49.8 °F /  9.9 °C 48.7 °F /  9.3 °C 30.01in /  1016.1hPa Calm     96% 0.00in /  0mm 26 W/m2
08:09 49.7 °F /  9.8 °C 48.6 °F /  9.2 °C 30.01in /  1016.1hPa Calm     96% 0.00in /  0mm 21 W/m2
08:14 50.2 °F /  10.1 °C 48.8 °F /  9.3 °C 30.01in /  1016.1hPa Calm     95.4% 0.00in /  0mm 21 W/m2
08:19 49.8 °F /  9.9 °C 48.8 °F /  9.3 °C 30.01in /  1016.1hPa Calm     96% 0.00in /  0mm 25 W/m2
08:24 49.7 °F /  9.8 °C 48.6 °F /  9.2 °C 30.01in /  1016.1hPa Calm     96% 0.00in /  0mm 32 W/m2
08:29 50.2 °F /  10.1 °C 49.1 °F /  9.5 °C 30.01in /  1016.1hPa Calm     96% 0.00in /  0mm 35 W/m2
08:34 49.8 °F /  9.9 °C 48.8 °F /  9.3 °C 30.01in /  1016.1hPa Calm     96% 0.00in /  0mm 35 W/m2
08:39 49.8 °F /  9.9 °C 48.7 °F /  9.3 °C 30.01in /  1016.1hPa Calm     96% 0.00in /  0mm 35 W/m2
08:44 49.8 °F /  9.9 °C 48.7 °F /  9.3 °C 30.02in /  1016.5hPa Calm     96% 0.00in /  0mm 33 W/m2
08:49 49.6 °F /  9.8 °C 48.6 °F /  9.2 °C 30.02in /  1016.5hPa Calm     96% 0.00in /  0mm 44 W/m2
08:54 49.7 °F /  9.8 °C 48.7 °F /  9.3 °C 30.02in /  1016.5hPa Calm     96% 0.00in /  0mm 62 W/m2
08:59 49.9 °F /  9.9 °C 48.8 °F /  9.3 °C 30.02in /  1016.5hPa Calm     96% 0.00in /  0mm 60 W/m2
09:04 49.9 °F /  9.9 °C 48.8 °F /  9.3 °C 30.02in /  1016.5hPa Calm     96% 0.00in /  0mm 70 W/m2
09:09 49.9 °F /  9.9 °C 48.8 °F /  9.3 °C 30.02in /  1016.5hPa Calm     96% 0.00in /  0mm 79 W/m2
09:14 50 °F /  10 °C 48.9 °F /  9.4 °C 30.02in /  1016.5hPa Calm     96% 0.00in /  0mm 83 W/m2
09:19 50.1 °F /  10.1 °C 49 °F /  9.4 °C 30.02in /  1016.5hPa Calm     96% 0.00in /  0mm 88 W/m2
09:24 50.3 °F /  10.2 °C 49.2 °F /  9.6 °C 30.02in /  1016.5hPa Calm     96% 0.00in /  0mm 114 W/m2
09:29 50.5 °F /  10.3 °C 49.4 °F /  9.7 °C 30.02in /  1016.5hPa Calm     96% 0.00in /  0mm 121 W/m2
09:34 50.6 °F /  10.3 °C 49.6 °F /  9.8 °C 30.02in /  1016.5hPa Calm     96% 0.00in /  0mm 98 W/m2
09:39 50.7 °F /  10.4 °C 49.6 °F /  9.8 °C 30.02in /  1016.5hPa Calm     96% 0.00in /  0mm 81 W/m2
09:44 50.6 °F /  10.3 °C 49.5 °F /  9.7 °C 30.02in /  1016.5hPa Calm     96% 0.00in /  0mm 109 W/m2
09:49 50.7 °F /  10.4 °C 49.6 °F /  9.8 °C 30.02in /  1016.5hPa Calm     96% 0.00in /  0mm 137 W/m2
09:54 50.9 °F /  10.5 °C 49.8 °F /  9.9 °C 30.02in /  1016.5hPa Calm     96% 0.00in /  0mm 139 W/m2
09:59 51.2 °F /  10.7 °C 50.1 °F /  10.1 °C 30.02in /  1016.5hPa Calm     96% 0.00in /  0mm 144 W/m2
10:04 51.4 °F /  10.8 °C 50.4 °F /  10.2 °C 30.02in /  1016.5hPa Calm     96% 0.00in /  0mm 141 W/m2
10:09 51.4 °F /  10.8 °C 50.3 °F /  10.2 °C 30.02in /  1016.5hPa Calm     96% 0.00in /  0mm 105 W/m2
10:14 51.3 °F /  10.7 °C 50.2 °F /  10.1 °C 30.02in /  1016.5hPa Calm     96% 0.00in /  0mm 114 W/m2
10:19 51.3 °F /  10.7 °C 50.3 °F /  10.2 °C 30.02in /  1016.5hPa Calm     96% 0.00in /  0mm 120 W/m2
10:24 51.4 °F /  10.8 °C 50.4 °F /  10.2 °C 30.02in /  1016.5hPa Calm     96% 0.00in /  0mm 125 W/m2
10:29 51.6 °F /  10.9 °C 50.5 °F /  10.3 °C 30.02in /  1016.5hPa Calm     96% 0.00in /  0mm 123 W/m2
10:34 52.2 °F /  11.2 °C 51.1 °F /  10.6 °C 30.02in /  1016.5hPa Calm     96% 0.00in /  0mm 130 W/m2
10:39 52.1 °F /  11.2 °C 51 °F /  10.6 °C 30.02in /  1016.5hPa Calm     96% 0.00in /  0mm 130 W/m2
10:44 52.2 °F /  11.2 °C 51.1 °F /  10.6 °C 30.03in /  1016.8hPa Calm     96% 0.00in /  0mm 127 W/m2
10:49 52.4 °F /  11.3 °C 51.4 °F /  10.8 °C 30.03in /  1016.8hPa Calm     96% 0.00in /  0mm 128 W/m2
10:54 52.6 °F /  11.4 °C 51.5 °F /  10.8 °C 30.03in /  1016.8hPa Calm     96% 0.00in /  0mm 123 W/m2
10:59 52.9 °F /  11.6 °C 51.8 °F /  11 °C 30.03in /  1016.8hPa Calm     96% 0.00in /  0mm 121 W/m2
11:04 52.8 °F /  11.6 °C 51.7 °F /  10.9 °C 30.03in /  1016.8hPa Calm     96% 0.00in /  0mm 120 W/m2
11:09 53 °F /  11.7 °C 51.8 °F /  11 °C 30.03in /  1016.8hPa Calm     96% 0.00in /  0mm 151 W/m2
11:14 53.3 °F /  11.8 °C 52.2 °F /  11.2 °C 30.03in /  1016.8hPa Calm     96% 0.00in /  0mm 163 W/m2
11:19 53.6 °F /  12 °C 52.5 °F /  11.4 °C 30.03in /  1016.8hPa Calm     96% 0.00in /  0mm 162 W/m2
11:24 54 °F /  12.2 °C 53 °F /  11.7 °C 30.02in /  1016.5hPa Calm     96% 0.00in /  0mm 190 W/m2
11:29 54.1 °F /  12.3 °C 53 °F /  11.7 °C 30.02in /  1016.5hPa Calm     96% 0.00in /  0mm 253 W/m2
11:34 53.8 °F /  12.1 °C 52.7 °F /  11.5 °C 30.02in /  1016.5hPa Calm     96% 0.00in /  0mm 274 W/m2
11:39 54 °F /  12.2 °C 53 °F /  11.7 °C 30.02in /  1016.5hPa Calm     96% 0.00in /  0mm 308 W/m2
11:44 54.2 °F /  12.3 °C 53.2 °F /  11.8 °C 30.03in /  1016.8hPa Calm     96% 0.00in /  0mm 343 W/m2
11:49 54.4 °F /  12.4 °C 53.3 °F /  11.8 °C 30.03in /  1016.8hPa Calm     96% 0.00in /  0mm 380 W/m2
11:54 54.7 °F /  12.6 °C 53.6 °F /  12 °C 30.03in /  1016.8hPa Calm     96% 0.00in /  0mm 264 W/m2
11:59 55.3 °F /  12.9 °C 54.2 °F /  12.3 °C 30.03in /  1016.8hPa Calm     96% 0.00in /  0mm 308 W/m2
12:04 55.9 °F /  13.3 °C 54.9 °F /  12.7 °C 30.03in /  1016.8hPa Calm     96% 0.00in /  0mm 186 W/m2
12:09 55.8 °F /  13.2 °C 54.7 °F /  12.6 °C 30.02in /  1016.5hPa Calm     96% 0.00in /  0mm 251 W/m2
12:14 55.4 °F /  13 °C 54.3 °F /  12.4 °C 30.02in /  1016.5hPa Calm     96% 0.00in /  0mm 628 W/m2
12:19 56.1 °F /  13.4 °C 55 °F /  12.8 °C 30.02in /  1016.5hPa South 1mph /  1.6km/h 4mph /  6.4km/h 96% 0.00in /  0mm 626 W/m2
12:24 56.4 °F /  13.6 °C 55.3 °F /  12.9 °C 30.02in /  1016.5hPa South 0.4mph /  0.6km/h 4mph /  6.4km/h 96% 0.00in /  0mm 585 W/m2
12:29 56.9 °F /  13.8 °C 55.8 °F /  13.2 °C 30.02in /  1016.5hPa South 1.6mph /  2.6km/h 3mph /  4.8km/h 95.8% 0.00in /  0mm 213 W/m2
12:34 57.7 °F /  14.3 °C 56.2 °F /  13.4 °C 30.02in /  1016.5hPa South 1.9mph /  3.1km/h 4mph /  6.4km/h 95% 0.00in /  0mm 564 W/m2
12:39 57.8 °F /  14.3 °C 56.4 °F /  13.6 °C 30.01in /  1016.1hPa SE 3.1mph /  5km/h 5mph /  8km/h 95% 0.00in /  0mm 640 W/m2
12:44 57.1 °F /  13.9 °C 55.5 °F /  13.1 °C 30.01in /  1016.1hPa SE 2mph /  3.2km/h 6mph /  9.7km/h 94.6% 0.00in /  0mm 371 W/m2
12:49 56.8 °F /  13.8 °C 55.2 °F /  12.9 °C 30.01in /  1016.1hPa SE 1.5mph /  2.4km/h 3mph /  4.8km/h 94% 0.00in /  0mm 223 W/m2
12:54 57 °F /  13.9 °C 55.2 °F /  12.9 °C 30.01in /  1016.1hPa ESE 2.5mph /  4km/h 5mph /  8km/h 93.6% 0.00in /  0mm 258 W/m2
12:59 57.7 °F /  14.3 °C 55.7 °F /  13.2 °C 30.01in /  1016.1hPa ESE 2.2mph /  3.5km/h 6mph /  9.7km/h 93% 0.00in /  0mm 214 W/m2
13:04 57.6 °F /  14.2 °C 55.4 °F /  13 °C 30.01in /  1016.1hPa SE 2.4mph /  3.9km/h 4mph /  6.4km/h 92.4% 0.00in /  0mm 373 W/m2
13:09 57.4 °F /  14.1 °C 54.8 °F /  12.7 °C 30.01in /  1016.1hPa SSE 2.5mph /  4km/h 5mph /  8km/h 91% 0.00in /  0mm 638 W/m2
13:14 57.8 °F /  14.3 °C 54.9 °F /  12.7 °C 30.01in /  1016.1hPa SE 1.3mph /  2.1km/h 4mph /  6.4km/h 90% 0.00in /  0mm 640 W/m2
13:19 58.9 °F /  14.9 °C 55.6 °F /  13.1 °C 30.01in /  1016.1hPa ESE 1.6mph /  2.6km/h 4mph /  6.4km/h 89% 0.00in /  0mm 624 W/m2
13:24 59.6 °F /  15.3 °C 55.8 °F /  13.2 °C 30.01in /  1016.1hPa SE 1.4mph /  2.3km/h 3mph /  4.8km/h 87.4% 0.00in /  0mm 633 W/m2
13:29 59.4 °F /  15.2 °C 54.8 °F /  12.7 °C 30.01in /  1016.1hPa SSE 2.2mph /  3.5km/h 4mph /  6.4km/h 84.8% 0.00in /  0mm 582 W/m2
13:34 58.8 °F /  14.9 °C 53.7 °F /  12.1 °C 30.01in /  1016.1hPa SSW 2.7mph /  4.3km/h 5mph /  8km/h 83.2% 0.00in /  0mm 571 W/m2
13:39 59.5 °F /  15.3 °C 54.2 °F /  12.3 °C 30.01in /  1016.1hPa SSW 0.8mph /  1.3km/h 4mph /  6.4km/h 82.8% 0.00in /  0mm 571 W/m2
13:44 60.5 °F /  15.8 °C 54.6 °F /  12.6 °C 30.01in /  1016.1hPa SSW 0.4mph /  0.6km/h 3mph /  4.8km/h 80.8% 0.00in /  0mm 554 W/m2
13:49 60.6 °F /  15.9 °C 54 °F /  12.2 °C 30.01in /  1016.1hPa South 2mph /  3.2km/h 4mph /  6.4km/h 78.6% 0.00in /  0mm 578 W/m2
13:54 60.5 °F /  15.8 °C 53.4 °F /  11.9 °C 30.00in /  1015.8hPa SSE 1.5mph /  2.4km/h 4mph /  6.4km/h 77.2% 0.00in /  0mm 541 W/m2
13:59 60.5 °F /  15.8 °C 53.1 °F /  11.7 °C 30.00in /  1015.8hPa SSE 1.6mph /  2.6km/h 3mph /  4.8km/h 76.4% 0.00in /  0mm 483 W/m2
14:04 61.1 °F /  16.2 °C 53.7 °F /  12.1 °C 29.99in /  1015.5hPa SE 0.7mph /  1.1km/h 4mph /  6.4km/h 76.4% 0.00in /  0mm 485 W/m2
14:09 62.1 °F /  16.7 °C 54.5 °F /  12.5 °C 29.99in /  1015.5hPa SE 0.8mph /  1.3km/h 3mph /  4.8km/h 76% 0.00in /  0mm 513 W/m2
14:14 63 °F /  17.2 °C 54.4 °F /  12.4 °C 29.99in /  1015.5hPa ESE 1.2mph /  1.9km/h 5mph /  8km/h 73.8% 0.00in /  0mm 526 W/m2
14:19 63.9 °F /  17.7 °C 55.4 °F /  13 °C 29.99in /  1015.5hPa East 2.1mph /  3.4km/h 5mph /  8km/h 74% 0.00in /  0mm 524 W/m2
14:24 64.8 °F /  18.2 °C 55.2 °F /  12.9 °C 29.99in /  1015.5hPa ESE 0.4mph /  0.6km/h 5mph /  8km/h 71.2% 0.00in /  0mm 519 W/m2
14:29 64.4 °F /  18 °C 54.6 °F /  12.6 °C 29.98in /  1015.1hPa ESE 2mph /  3.2km/h 5mph /  8km/h 70.4% 0.00in /  0mm 508 W/m2
14:34 62.3 °F /  16.8 °C 52.9 °F /  11.6 °C 29.98in /  1015.1hPa ESE 2mph /  3.2km/h 5mph /  8km/h 71.2% 0.00in /  0mm 274 W/m2
14:39 62.1 °F /  16.7 °C 53.2 °F /  11.8 °C 29.98in /  1015.1hPa ESE 2.5mph /  4km/h 5mph /  8km/h 72.8% 0.00in /  0mm 522 W/m2
14:44 62.8 °F /  17.1 °C 54.3 °F /  12.4 °C 29.98in /  1015.1hPa East 3mph /  4.8km/h 6mph /  9.7km/h 73.8% 0.00in /  0mm 510 W/m2
14:49 64.2 °F /  17.9 °C 55.2 °F /  12.9 °C 29.99in /  1015.5hPa NE 1.4mph /  2.3km/h 5mph /  8km/h 72.4% 0.00in /  0mm 510 W/m2
14:54 64.4 °F /  18 °C 54.7 °F /  12.6 °C 29.99in /  1015.5hPa NNW 2.6mph /  4.2km/h 4mph /  6.4km/h 70.6% 0.00in /  0mm 510 W/m2
14:59 63.4 °F /  17.4 °C 53.8 °F /  12.1 °C 29.99in /  1015.5hPa SW 1.6mph /  2.6km/h 4mph /  6.4km/h 70.6% 0.00in /  0mm 503 W/m2
15:04 63.1 °F /  17.3 °C 53.4 °F /  11.9 °C 29.99in /  1015.5hPa SSW 2mph /  3.2km/h 5mph /  8km/h 70.6% 0.00in /  0mm 413 W/m2
15:09 62.4 °F /  16.9 °C 52.6 °F /  11.4 °C 29.98in /  1015.1hPa SSW 1.7mph /  2.7km/h 5mph /  8km/h 70.4% 0.00in /  0mm 512 W/m2
15:14 61.8 °F /  16.6 °C 52.6 °F /  11.4 °C 29.98in /  1015.1hPa SSW 1.3mph /  2.1km/h 5mph /  8km/h 71.8% 0.00in /  0mm 496 W/m2
15:19 61 °F /  16.1 °C 51.9 °F /  11.1 °C 29.98in /  1015.1hPa SSW 1.3mph /  2.1km/h 4mph /  6.4km/h 71.8% 0.00in /  0mm 338 W/m2
15:24 61.1 °F /  16.2 °C 52.3 °F /  11.3 °C 29.98in /  1015.1hPa SSW 0.8mph /  1.3km/h 4mph /  6.4km/h 72.6% 0.00in /  0mm 338 W/m2
15:29 61.6 °F /  16.4 °C 52.4 °F /  11.3 °C 29.98in /  1015.1hPa SSW 0.4mph /  0.6km/h 4mph /  6.4km/h 72% 0.00in /  0mm 367 W/m2
15:34 62.5 °F /  16.9 °C 53.3 °F /  11.8 °C 29.98in /  1015.1hPa Calm   2mph /  3.2km/h 72% 0.00in /  0mm 383 W/m2
15:39 63.8 °F /  17.7 °C 54.4 °F /  12.4 °C 29.98in /  1015.1hPa SSW 1mph /  1.6km/h 3mph /  4.8km/h 71.4% 0.00in /  0mm 343 W/m2
15:44 63.5 °F /  17.5 °C 52.9 °F /  11.6 °C 29.98in /  1015.1hPa SSW 1.7mph /  2.7km/h 3mph /  4.8km/h 68.6% 0.00in /  0mm 271 W/m2
15:49 62.4 °F /  16.9 °C 52.5 °F /  11.4 °C 29.98in /  1015.1hPa SSW 1.3mph /  2.1km/h 3mph /  4.8km/h 69.8% 0.00in /  0mm 271 W/m2
15:54 62.4 °F /  16.9 °C 52.6 °F /  11.4 °C 29.98in /  1015.1hPa SW 1.7mph /  2.7km/h 3mph /  4.8km/h 70.2% 0.00in /  0mm 253 W/m2
15:59 62.1 °F /  16.7 °C 51.9 °F /  11.1 °C 29.98in /  1015.1hPa SW 2.6mph /  4.2km/h 4mph /  6.4km/h 69.2% 0.00in /  0mm 200 W/m2
16:04 61.5 °F /  16.4 °C 51.6 °F /  10.9 °C 29.98in /  1015.1hPa SW 1.8mph /  2.9km/h 4mph /  6.4km/h 70% 0.00in /  0mm 193 W/m2
16:09 61.6 °F /  16.4 °C 52 °F /  11.1 °C 29.98in /  1015.1hPa SW 1.4mph /  2.3km/h 3mph /  4.8km/h 70.8% 0.00in /  0mm 176 W/m2
16:14 61.7 °F /  16.5 °C 52.1 °F /  11.2 °C 29.97in /  1014.8hPa SW 1mph /  1.6km/h 2mph /  3.2km/h 71% 0.00in /  0mm 141 W/m2
16:19 61.5 °F /  16.4 °C 52 °F /  11.1 °C 29.98in /  1015.1hPa SW 1.6mph /  2.6km/h 3mph /  4.8km/h 71% 0.00in /  0mm 121 W/m2
16:24 61.4 °F /  16.3 °C 51.8 °F /  11 °C 29.98in /  1015.1hPa SW 0.9mph /  1.4km/h 3mph /  4.8km/h 71% 0.00in /  0mm 132 W/m2
16:29 61 °F /  16.1 °C 51.7 °F /  10.9 °C 29.98in /  1015.1hPa SW 1.3mph /  2.1km/h 3mph /  4.8km/h 71.4% 0.00in /  0mm 134 W/m2
16:34 60.9 °F /  16.1 °C 51.9 °F /  11.1 °C 29.98in /  1015.1hPa SW 0.8mph /  1.3km/h 4mph /  6.4km/h 72% 0.00in /  0mm 116 W/m2
16:39 61 °F /  16.1 °C 52 °F /  11.1 °C 29.98in /  1015.1hPa SW 0.6mph /  1km/h 2mph /  3.2km/h 72% 0.00in /  0mm 123 W/m2
16:44 61.1 °F /  16.2 °C 52 °F /  11.1 °C 29.98in /  1015.1hPa SW 0.2mph /  0.3km/h 2mph /  3.2km/h 72% 0.00in /  0mm 125 W/m2
16:49 61.3 °F /  16.3 °C 52.2 °F /  11.2 °C 29.97in /  1014.8hPa Calm     72% 0.00in /  0mm 109 W/m2
16:54 61.3 °F /  16.3 °C 51.8 °F /  11 °C 29.97in /  1014.8hPa SW 0.7mph /  1.1km/h 3mph /  4.8km/h 71.2% 0.00in /  0mm 111 W/m2
16:59 61.1 °F /  16.2 °C 51.7 °F /  10.9 °C 29.98in /  1015.1hPa SW 1.2mph /  1.9km/h 2mph /  3.2km/h 71.4% 0.00in /  0mm 100 W/m2
17:04 60.7 °F /  15.9 °C 51.8 °F /  11 °C 29.98in /  1015.1hPa SW 0.5mph /  0.8km/h 2mph /  3.2km/h 72.2% 0.00in /  0mm 91 W/m2
17:09 61.1 °F /  16.2 °C 52.7 °F /  11.5 °C 29.98in /  1015.1hPa SW 0.7mph /  1.1km/h 2mph /  3.2km/h 73.6% 0.00in /  0mm 84 W/m2
17:14 61.3 °F /  16.3 °C 53.1 °F /  11.7 °C 29.97in /  1014.8hPa SW 0.8mph /  1.3km/h 3mph /  4.8km/h 74% 0.00in /  0mm 76 W/m2
17:19 61.4 °F /  16.3 °C 53.5 °F /  11.9 °C 29.98in /  1015.1hPa SW 0.6mph /  1km/h 2mph /  3.2km/h 75% 0.00in /  0mm 70 W/m2
17:24 61.5 °F /  16.4 °C 53.6 °F /  12 °C 29.98in /  1015.1hPa SW 0.5mph /  0.8km/h 2mph /  3.2km/h 75% 0.00in /  0mm 67 W/m2
17:29 61.5 °F /  16.4 °C 53.6 °F /  12 °C 29.98in /  1015.1hPa SW 0.8mph /  1.3km/h 3mph /  4.8km/h 75% 0.00in /  0mm 60 W/m2
17:34 61.5 °F /  16.4 °C 53.6 °F /  12 °C 29.98in /  1015.1hPa SW 0.7mph /  1.1km/h 2mph /  3.2km/h 75% 0.00in /  0mm 49 W/m2
17:39 61.5 °F /  16.4 °C 53.6 °F /  12 °C 29.98in /  1015.1hPa SW 0.5mph /  0.8km/h 2mph /  3.2km/h 75% 0.00in /  0mm 39 W/m2
17:44 61.5 °F /  16.4 °C 53.6 °F /  12 °C 29.98in /  1015.1hPa Calm   1mph /  1.6km/h 75% 0.00in /  0mm 33 W/m2
17:49 61.3 °F /  16.3 °C 53.4 °F /  11.9 °C 29.98in /  1015.1hPa Calm   1mph /  1.6km/h 75% 0.00in /  0mm 30 W/m2
17:54 61.2 °F /  16.2 °C 53.3 °F /  11.8 °C 29.98in /  1015.1hPa Calm     75% 0.00in /  0mm 25 W/m2
17:59 60.7 °F /  15.9 °C 53.1 °F /  11.7 °C 29.98in /  1015.1hPa Calm   1mph /  1.6km/h 75.8% 0.00in /  0mm 18 W/m2
18:04 60.2 °F /  15.7 °C 52.7 °F /  11.5 °C 29.99in /  1015.5hPa SW 0.2mph /  0.3km/h 1mph /  1.6km/h 76.2% 0.00in /  0mm 14 W/m2
18:09 59.7 °F /  15.4 °C 52.5 °F /  11.4 °C 29.99in /  1015.5hPa Calm   1mph /  1.6km/h 77% 0.00in /  0mm 11 W/m2
18:14 59.4 °F /  15.2 °C 52.4 °F /  11.3 °C 29.98in /  1015.1hPa Calm     77.6% 0.00in /  0mm 7 W/m2
18:19 59.1 °F /  15.1 °C 52.2 °F /  11.2 °C 29.98in /  1015.1hPa SW 0.4mph /  0.6km/h 2mph /  3.2km/h 78% 0.00in /  0mm 0 W/m2
18:24 58.7 °F /  14.8 °C 52 °F /  11.1 °C 29.98in /  1015.1hPa Calm   1mph /  1.6km/h 78.2% 0.00in /  0mm 0 W/m2
18:29 58.5 °F /  14.7 °C 52.1 °F /  11.2 °C 29.98in /  1015.1hPa Calm     79% 0.00in /  0mm 0 W/m2
18:34 58.5 °F /  14.7 °C 52.2 °F /  11.2 °C 29.98in /  1015.1hPa Calm     79.8% 0.00in /  0mm 0 W/m2
18:39 58.1 °F /  14.5 °C 52.1 °F /  11.2 °C 29.98in /  1015.1hPa Calm     80.2% 0.00in /  0mm 0 W/m2
18:44 57.7 °F /  14.3 °C 52 °F /  11.1 °C 29.98in /  1015.1hPa Calm     81% 0.00in /  0mm 0 W/m2
18:49 57.2 °F /  14 °C 51.6 °F /  10.9 °C 29.98in /  1015.1hPa Calm     81.6% 0.00in /  0mm 0 W/m2
18:54 56.6 °F /  13.7 °C 51.3 °F /  10.7 °C 29.98in /  1015.1hPa Calm     82.4% 0.00in /  0mm 0 W/m2
18:59 56.1 °F /  13.4 °C 51.2 °F /  10.7 °C 29.99in /  1015.5hPa Calm     83.2% 0.00in /  0mm 0 W/m2
19:04 55.4 °F /  13 °C 50.7 °F /  10.4 °C 29.99in /  1015.5hPa Calm     84.2% 0.00in /  0mm 0 W/m2
19:09 54.8 °F /  12.7 °C 50.3 °F /  10.2 °C 29.99in /  1015.5hPa SW 0.6mph /  1km/h 3mph /  4.8km/h 85% 0.00in /  0mm 0 W/m2
19:14 54.3 °F /  12.4 °C 50.2 °F /  10.1 °C 29.99in /  1015.5hPa SW 1.1mph /  1.8km/h 3mph /  4.8km/h 86% 0.00in /  0mm 0 W/m2
19:19 54.1 °F /  12.3 °C 50.2 °F /  10.1 °C 29.99in /  1015.5hPa SW 1.3mph /  2.1km/h 3mph /  4.8km/h 86.4% 0.00in /  0mm 0 W/m2
19:24 54.1 °F /  12.3 °C 50.4 °F /  10.2 °C 29.99in /  1015.5hPa SW 0.7mph /  1.1km/h 3mph /  4.8km/h 87% 0.00in /  0mm 0 W/m2
19:29 54 °F /  12.2 °C 50.2 °F /  10.1 °C 29.99in /  1015.5hPa SW 1.2mph /  1.9km/h 2mph /  3.2km/h 87% 0.00in /  0mm 0 W/m2
19:34 54 °F /  12.2 °C 50.4 °F /  10.2 °C 29.99in /  1015.5hPa SW 0.2mph /  0.3km/h 1mph /  1.6km/h 87.8% 0.00in /  0mm 0 W/m2
19:39 54.1 °F /  12.3 °C 50.7 °F /  10.4 °C 29.99in /  1015.5hPa SW 0.4mph /  0.6km/h 1mph /  1.6km/h 88% 0.00in /  0mm 0 W/m2
19:44 54.1 °F /  12.3 °C 50.7 °F /  10.4 °C 29.99in /  1015.5hPa Calm   1mph /  1.6km/h 88% 0.00in /  0mm 0 W/m2
19:49 54.4 °F /  12.4 °C 51 °F /  10.6 °C 29.99in /  1015.5hPa Calm     88.2% 0.00in /  0mm 0 W/m2
19:54 55 °F /  12.8 °C 51.7 °F /  10.9 °C 29.99in /  1015.5hPa Calm     89% 0.00in /  0mm 0 W/m2
19:59 55.3 °F /  12.9 °C 52.1 °F /  11.2 °C 29.99in /  1015.5hPa Calm     89% 0.00in /  0mm 0 W/m2
20:04 54.9 °F /  12.7 °C 51.6 °F /  10.9 °C 29.98in /  1015.1hPa Calm     89% 0.00in /  0mm 0 W/m2
20:09 54.3 °F /  12.4 °C 50.9 °F /  10.5 °C 29.98in /  1015.1hPa SW 0.2mph /  0.3km/h 1mph /  1.6km/h 88.2% 0.00in /  0mm 0 W/m2
20:14 54 °F /  12.2 °C 50.7 °F /  10.4 °C 29.98in /  1015.1hPa Calm   1mph /  1.6km/h 88.8% 0.00in /  0mm 0 W/m2
20:19 54 °F /  12.2 °C 50.7 °F /  10.4 °C 29.98in /  1015.1hPa Calm     89% 0.00in /  0mm 0 W/m2
20:24 53.8 °F /  12.1 °C 50.5 °F /  10.3 °C 29.99in /  1015.5hPa Calm     89% 0.00in /  0mm 0 W/m2
20:29 53.1 °F /  11.7 °C 49.8 °F /  9.9 °C 29.99in /  1015.5hPa Calm     89% 0.00in /  0mm 0 W/m2
20:34 53.1 °F /  11.7 °C 49.8 °F /  9.9 °C 29.98in /  1015.1hPa Calm     89% 0.00in /  0mm 0 W/m2
20:39 53.4 °F /  11.9 °C 50.3 °F /  10.2 °C 29.98in /  1015.1hPa Calm     89.2% 0.00in /  0mm 0 W/m2
20:44 54 °F /  12.2 °C 51.1 °F /  10.6 °C 29.98in /  1015.1hPa Calm     90% 0.00in /  0mm 0 W/m2
20:49 54.2 °F /  12.3 °C 51.2 °F /  10.7 °C 29.98in /  1015.1hPa Calm     89.6% 0.00in /  0mm 0 W/m2
20:53 54.3 °F /  12.4 °C 51.4 °F /  10.8 °C 29.98in /  1015.1hPa Calm     90% 0.00in /  0mm 0 W/m2
20:59 54.1 °F /  12.3 °C 51 °F /  10.6 °C 29.98in /  1015.1hPa Calm     89.4% 0.00in /  0mm 0 W/m2
21:04 53.2 °F /  11.8 °C 50 °F /  10 °C 29.98in /  1015.1hPa Calm     89% 0.00in /  0mm 0 W/m2
21:09 52.6 °F /  11.4 °C 49.5 °F /  9.7 °C 29.98in /  1015.1hPa Calm     89% 0.00in /  0mm 0 W/m2
21:14 52.5 °F /  11.4 °C 49.5 °F /  9.7 °C 29.98in /  1015.1hPa SW 0.9mph /  1.4km/h 2mph /  3.2km/h 89% 0.00in /  0mm 0 W/m2
21:19 52.7 °F /  11.5 °C 49.8 °F /  9.9 °C 29.98in /  1015.1hPa SW 0.4mph /  0.6km/h 2mph /  3.2km/h 90% 0.00in /  0mm 0 W/m2
21:24 52.9 °F /  11.6 °C 50 °F /  10 °C 29.98in /  1015.1hPa Calm   1mph /  1.6km/h 90% 0.00in /  0mm 0 W/m2
21:29 52.7 °F /  11.5 °C 49.8 °F /  9.9 °C 29.98in /  1015.1hPa Calm     90% 0.00in /  0mm 0 W/m2
21:34 52.5 °F /  11.4 °C 49.6 °F /  9.8 °C 29.98in /  1015.1hPa Calm     90% 0.00in /  0mm 0 W/m2
21:39 52.3 °F /  11.3 °C 49.5 °F /  9.7 °C 29.98in /  1015.1hPa Calm     90% 0.00in /  0mm 0 W/m2
21:44 52.1 °F /  11.2 °C 49.2 °F /  9.6 °C 29.98in /  1015.1hPa Calm     90% 0.00in /  0mm 0 W/m2
21:49 51.6 °F /  10.9 °C 48.7 °F /  9.3 °C 29.98in /  1015.1hPa Calm     90% 0.00in /  0mm 0 W/m2
21:54 51.4 °F /  10.8 °C 48.5 °F /  9.2 °C 29.98in /  1015.1hPa Calm     90% 0.00in /  0mm 0 W/m2
21:59 51.3 °F /  10.7 °C 48.4 °F /  9.1 °C 29.98in /  1015.1hPa Calm     90% 0.00in /  0mm 0 W/m2
22:04 51.2 °F /  10.7 °C 48.3 °F /  9.1 °C 29.99in /  1015.5hPa Calm     90% 0.00in /  0mm 0 W/m2
22:09 51.3 °F /  10.7 °C 48.5 °F /  9.2 °C 29.99in /  1015.5hPa Calm   1mph /  1.6km/h 90.4% 0.00in /  0mm 0 W/m2
22:14 51.3 °F /  10.7 °C 48.6 °F /  9.2 °C 29.99in /  1015.5hPa SW 0.4mph /  0.6km/h 1mph /  1.6km/h 90.8% 0.00in /  0mm 0 W/m2
22:19 51.4 °F /  10.8 °C 48.8 °F /  9.3 °C 29.98in /  1015.1hPa Calm   1mph /  1.6km/h 91% 0.00in /  0mm 0 W/m2
22:24 51.4 °F /  10.8 °C 48.9 °F /  9.4 °C 29.98in /  1015.1hPa SW 0.2mph /  0.3km/h 1mph /  1.6km/h 91% 0.00in /  0mm 0 W/m2
22:29 51.6 °F /  10.9 °C 49.1 °F /  9.5 °C 29.98in /  1015.1hPa Calm   1mph /  1.6km/h 91% 0.00in /  0mm 0 W/m2
22:34 51.8 °F /  11 °C 49.3 °F /  9.6 °C 29.99in /  1015.5hPa Calm   1mph /  1.6km/h 91% 0.00in /  0mm 0 W/m2
22:39 51.6 °F /  10.9 °C 49.1 °F /  9.5 °C 29.98in /  1015.1hPa Calm     91% 0.00in /  0mm 0 W/m2
22:44 51.6 °F /  10.9 °C 49.1 °F /  9.5 °C 29.98in /  1015.1hPa Calm     91% 0.00in /  0mm 0 W/m2
22:49 51.6 °F /  10.9 °C 49.1 °F /  9.5 °C 29.98in /  1015.1hPa Calm     91% 0.00in /  0mm 0 W/m2
22:54 51.6 °F /  10.9 °C 49.1 °F /  9.5 °C 29.98in /  1015.1hPa Calm   1mph /  1.6km/h 91% 0.00in /  0mm 0 W/m2
22:59 51.4 °F /  10.8 °C 48.9 °F /  9.4 °C 29.98in /  1015.1hPa Calm     91% 0.00in /  0mm 0 W/m2
23:04 51.3 °F /  10.7 °C 48.7 °F /  9.3 °C 29.98in /  1015.1hPa Calm     91% 0.00in /  0mm 0 W/m2
23:09 51.3 °F /  10.7 °C 48.7 °F /  9.3 °C 29.98in /  1015.1hPa Calm     91% 0.00in /  0mm 0 W/m2
23:14 51.3 °F /  10.7 °C 49.1 °F /  9.5 °C 29.98in /  1015.1hPa Calm     92% 0.00in /  0mm 0 W/m2
23:19 51.3 °F /  10.7 °C 49 °F /  9.4 °C 29.98in /  1015.1hPa Calm     91.8% 0.00in /  0mm 0 W/m2
23:23 51.2 °F /  10.7 °C 48.7 °F /  9.3 °C 29.98in /  1015.1hPa Calm     91% 0.00in /  0mm 0 W/m2
23:29 51 °F /  10.6 °C 48.5 °F /  9.2 °C 29.98in /  1015.1hPa Calm     91% 0.00in /  0mm 0 W/m2
23:34 50.8 °F /  10.4 °C 48.5 °F /  9.2 °C 29.98in /  1015.1hPa Calm     91.6% 0.00in /  0mm 0 W/m2
23:39 50.7 °F /  10.4 °C 48.6 °F /  9.2 °C 29.97in /  1014.8hPa Calm     92% 0.00in /  0mm 0 W/m2
23:44 50.5 °F /  10.3 °C 48.4 °F /  9.1 °C 29.97in /  1014.8hPa Calm     92% 0.00in /  0mm 0 W/m2
23:49 50.6 °F /  10.3 °C 48.5 °F /  9.2 °C 29.97in /  1014.8hPa Calm     92% 0.00in /  0mm 0 W/m2
23:54 50.5 °F /  10.3 °C 48.4 °F /  9.1 °C 29.97in /  1014.8hPa Calm     92% 0.00in /  0mm 0 W/m2
23:59 50.6 °F /  10.3 °C 48.5 °F /  9.2 °C 29.97in /  1014.8hPa Calm     92% 0.00in /  0mm 0 W/m2
Bath Spa Weather
Compliments of Weather Underground - 2 mb